Time;durP1;ratioP1;P1;durP2;ratioP2;P2;SDS_P1;SDS_P2;PMS_P1;PMS_P2;Temp;Humidity;BMP_temperature;BMP_pressure;BME280_temperature;BME280_humidity;BME280_pressure;Samples;Min_cycle;Max_cycle;Signal;HPM_P1;HPM_P2
2023/06/12 00:00:53;;;;;;;4.65;3.38;;;25.30;51.30;;;;;;4985889;28;87727;-83
2023/06/12 00:03:21;;;;;;;3.78;3.30;;;25.30;51.10;;;;;;4985952;28;87834;-83
2023/06/12 00:05:47;;;;;;;4.50;3.38;;;25.30;51.30;;;;;;4984006;28;86841;-83
2023/06/12 00:08:17;;;;;;;7.07;3.47;;;25.30;51.20;;;;;;4985691;28;87427;-85
2023/06/12 00:10:44;;;;;;;4.90;3.63;;;25.30;51.30;;;;;;4981966;28;87918;-84
2023/06/12 00:13:10;;;;;;;5.07;3.78;;;25.30;51.30;;;;;;4983643;28;88457;-83
2023/06/12 00:15:36;;;;;;;4.20;3.13;;;25.30;51.10;;;;;;4984738;28;89734;-85
2023/06/12 00:18:03;;;;;;;3.53;3.10;;;25.30;51.10;;;;;;4983509;28;88027;-83
2023/06/12 00:20:29;;;;;;;3.78;3.17;;;25.30;51.30;;;;;;4984140;28;88405;-84
2023/06/12 00:22:56;;;;;;;3.10;2.80;;;25.20;51.30;;;;;;4982656;28;87332;-83
2023/06/12 00:25:22;;;;;;;4.53;3.20;;;25.30;51.30;;;;;;4982700;28;87924;-83
2023/06/12 00:27:47;;;;;;;5.78;3.22;;;25.20;51.30;;;;;;4982492;28;87455;-83
2023/06/12 00:30:13;;;;;;;5.57;3.60;;;25.20;51.40;;;;;;4980113;28;89093;-84
2023/06/12 00:32:39;;;;;;;3.83;3.33;;;25.20;51.50;;;;;;4985050;28;87245;-84
2023/06/12 00:35:05;;;;;;;3.20;2.90;;;25.20;51.50;;;;;;4987214;28;87623;-84
2023/06/12 00:37:32;;;;;;;4.57;3.10;;;25.20;51.60;;;;;;4983323;28;90583;-83
2023/06/12 00:39:57;;;;;;;4.18;3.03;;;25.20;51.60;;;;;;4985080;28;89338;-84
2023/06/12 00:42:29;;;;;;;4.22;2.95;;;25.20;51.50;;;;;;4983305;28;87523;-83
2023/06/12 00:44:55;;;;;;;4.75;3.55;;;25.20;51.70;;;;;;4983468;28;87691;-83
2023/06/12 00:47:20;;;;;;;3.10;2.80;;;25.20;51.60;;;;;;4984542;28;88644;-83
2023/06/12 00:49:46;;;;;;;3.42;3.13;;;25.20;51.60;;;;;;4982213;28;87888;-84
2023/06/12 00:52:12;;;;;;;4.43;3.40;;;25.20;51.50;;;;;;4984295;28;87638;-84
2023/06/12 00:54:43;;;;;;;4.57;3.42;;;25.20;51.60;;;;;;4983402;28;86840;-84
2023/06/12 00:57:09;;;;;;;3.53;3.03;;;25.20;51.60;;;;;;4985926;28;87770;-84
2023/06/12 00:59:35;;;;;;;4.13;3.25;;;25.20;51.80;;;;;;4984410;28;87387;-83
2023/06/12 01:02:03;;;;;;;4.03;2.88;;;25.20;51.60;;;;;;4985666;28;88663;-83
2023/06/12 01:04:29;;;;;;;3.45;3.05;;;25.20;51.80;;;;;;4981218;28;87879;-83
2023/06/12 01:07:03;;;;;;;4.72;2.90;;;25.20;52.00;;;;;;4982831;28;88153;-84
2023/06/12 01:09:53;;;;;;;4.65;3.30;;;25.20;51.90;;;;;;4984943;28;88136;-83
2023/06/12 01:12:20;;;;;;;2.72;2.53;;;25.20;52.10;;;;;;4982812;28;87532;-83
2023/06/12 01:14:46;;;;;;;4.35;3.38;;;25.20;52.00;;;;;;4983846;28;87917;-84
2023/06/12 01:17:11;;;;;;;3.63;3.00;;;25.20;51.90;;;;;;4981252;28;87655;-83
2023/06/12 01:19:37;;;;;;;4.05;2.95;;;25.20;52.10;;;;;;4981965;28;87900;-84
2023/06/12 01:22:08;;;;;;;3.88;2.90;;;25.20;52.10;;;;;;4985082;28;87931;-83
2023/06/12 01:25:04;;;;;;;3.72;3.17;;;25.20;52.10;;;;;;4981229;28;87606;-83
2023/06/12 01:27:45;;;;;;;3.72;3.42;;;25.20;52.10;;;;;;4982231;28;88777;-84
2023/06/12 01:30:42;;;;;;;4.95;3.78;;;25.20;52.00;;;;;;4980399;28;88278;-84
2023/06/12 01:33:13;;;;;;;3.95;3.25;;;25.20;52.20;;;;;;4981474;28;87405;-85
2023/06/12 01:35:43;;;;;;;3.60;2.92;;;25.20;52.20;;;;;;4980356;28;87981;-84
2023/06/12 01:38:20;;;;;;;3.03;2.72;;;25.20;52.20;;;;;;4980554;28;87791;-84
2023/06/12 01:40:47;;;;;;;4.40;3.00;;;25.20;52.30;;;;;;4982806;28;87781;-84
2023/06/12 01:43:13;;;;;;;3.95;3.55;;;25.20;52.30;;;;;;4981528;28;87610;-84
2023/06/12 01:45:40;;;;;;;3.50;2.88;;;25.10;52.20;;;;;;4984993;28;86698;-83
2023/06/12 01:48:06;;;;;;;3.25;2.95;;;25.20;52.30;;;;;;4981104;28;87353;-84
2023/06/12 01:50:32;;;;;;;3.33;3.00;;;25.20;52.30;;;;;;4980565;28;87637;-84
2023/06/12 01:52:57;;;;;;;4.03;3.28;;;25.10;52.20;;;;;;4978521;28;88588;-84
2023/06/12 01:55:24;;;;;;;4.15;3.10;;;25.10;52.40;;;;;;4981181;28;87785;-84
2023/06/12 01:57:50;;;;;;;4.15;2.97;;;25.20;52.30;;;;;;4980932;28;87884;-83
2023/06/12 02:00:17;;;;;;;3.40;3.08;;;25.10;52.40;;;;;;4980389;28;87543;-83
2023/06/12 02:02:45;;;;;;;3.33;2.50;;;25.20;52.40;;;;;;4980368;28;87763;-83
2023/06/12 02:05:11;;;;;;;4.40;3.20;;;25.10;52.30;;;;;;4979669;28;87640;-83
2023/06/12 02:07:37;;;;;;;3.50;2.90;;;25.10;52.90;;;;;;4980433;28;87459;-84
2023/06/12 02:10:03;;;;;;;4.03;3.42;;;25.10;52.30;;;;;;4980949;28;87121;-84
2023/06/12 02:12:32;;;;;;;3.40;3.10;;;25.20;52.40;;;;;;4984993;28;87421;-84
2023/06/12 02:14:58;;;;;;;3.75;2.95;;;25.10;52.10;;;;;;4985571;28;87568;-85
2023/06/12 02:17:24;;;;;;;3.08;2.60;;;25.20;52.00;;;;;;4984748;28;88868;-84
2023/06/12 02:19:50;;;;;;;3.30;3.00;;;25.10;52.00;;;;;;4982984;28;87939;-84
2023/06/12 02:22:15;;;;;;;3.97;3.03;;;25.10;52.10;;;;;;4984280;28;87552;-85
2023/06/12 02:24:41;;;;;;;4.05;3.25;;;25.10;52.10;;;;;;4983822;28;89147;-83
2023/06/12 02:27:07;;;;;;;3.85;3.10;;;25.10;52.20;;;;;;4983620;28;87550;-84
2023/06/12 02:29:32;;;;;;;3.53;3.20;;;25.10;52.20;;;;;;4983368;28;88106;-85
2023/06/12 02:31:58;;;;;;;3.38;2.92;;;25.10;52.10;;;;;;4984051;28;87722;-84
2023/06/12 02:34:24;;;;;;;3.00;2.67;;;25.10;52.70;;;;;;4979640;28;86993;-85
2023/06/12 02:36:50;;;;;;;3.47;3.15;;;25.10;52.20;;;;;;4981402;28;87666;-83
2023/06/12 02:39:16;;;;;;;3.75;3.33;;;25.10;52.10;;;;;;4984236;28;87290;-83
2023/06/12 02:41:43;;;;;;;2.75;2.55;;;25.10;52.10;;;;;;4983025;28;88571;-83
2023/06/12 02:44:09;;;;;;;4.15;3.25;;;25.10;52.10;;;;;;4983456;28;88194;-83
2023/06/12 02:46:55;;;;;;;3.13;2.70;;;25.10;52.20;;;;;;4985838;28;88011;-84
2023/06/12 02:49:24;;;;;;;4.05;3.20;;;25.10;52.20;;;;;;4982911;28;87568;-83
2023/06/12 02:51:50;;;;;;;3.88;3.00;;;25.10;52.20;;;;;;4983345;28;87431;-84
2023/06/12 02:54:17;;;;;;;3.53;2.83;;;25.00;52.20;;;;;;4984729;28;87990;-84
2023/06/12 02:56:46;;;;;;;4.15;3.20;;;25.10;52.20;;;;;;4983414;28;88172;-84
2023/06/12 02:59:22;;;;;;;3.33;2.55;;;25.10;52.30;;;;;;4986374;28;87134;-82
2023/06/12 03:01:48;;;;;;;3.15;2.80;;;25.00;52.10;;;;;;4985986;28;87778;-83
2023/06/12 03:04:18;;;;;;;3.83;3.13;;;25.00;52.30;;;;;;4983303;28;87324;-84
2023/06/12 03:06:44;;;;;;;3.10;2.80;;;25.00;52.20;;;;;;4983213;28;89091;-84
2023/06/12 03:09:11;;;;;;;3.03;2.65;;;25.00;52.30;;;;;;4982340;28;90619;-84
2023/06/12 03:11:37;;;;;;;2.78;2.50;;;25.10;52.40;;;;;;4983802;28;87878;-84
2023/06/12 03:14:05;;;;;;;3.00;2.70;;;25.00;52.30;;;;;;4980931;28;89235;-83
2023/06/12 03:16:32;;;;;;;3.70;3.00;;;25.00;52.40;;;;;;4984919;28;88057;-83
2023/06/12 03:18:58;;;;;;;3.63;3.22;;;25.00;52.60;;;;;;4983232;28;88946;-84
2023/06/12 03:21:23;;;;;;;3.47;3.17;;;25.00;52.40;;;;;;4981949;28;87430;-84
2023/06/12 03:23:49;;;;;;;2.90;2.70;;;25.00;52.50;;;;;;4983279;28;87547;-83
2023/06/12 03:26:15;;;;;;;3.38;3.08;;;25.00;52.50;;;;;;4982712;28;87468;-83
2023/06/12 03:28:42;;;;;;;4.35;2.97;;;25.00;52.40;;;;;;4981788;28;87167;-85
2023/06/12 03:31:07;;;;;;;3.50;2.88;;;25.00;52.50;;;;;;4983510;28;87903;-84
2023/06/12 03:33:33;;;;;;;3.55;3.03;;;25.00;52.40;;;;;;4982445;28;87881;-83
2023/06/12 03:35:58;;;;;;;3.50;2.75;;;25.00;52.60;;;;;;4980578;28;89138;-84
2023/06/12 03:38:24;;;;;;;4.20;3.05;;;25.00;52.50;;;;;;4982080;28;87907;-84
2023/06/12 03:40:50;;;;;;;3.97;3.40;;;25.00;52.40;;;;;;4981606;28;87669;-85
2023/06/12 03:43:15;;;;;;;2.95;2.65;;;25.00;52.30;;;;;;4982280;28;87687;-84
2023/06/12 03:45:41;;;;;;;2.92;2.60;;;25.00;52.50;;;;;;4982316;28;88413;-85
2023/06/12 03:48:07;;;;;;;3.47;3.08;;;25.00;52.60;;;;;;4982938;28;87364;-84
2023/06/12 03:50:32;;;;;;;3.13;2.83;;;25.00;52.80;;;;;;4985371;28;88327;-83
2023/06/12 03:52:58;;;;;;;2.90;2.70;;;25.00;52.60;;;;;;4981701;28;87001;-83
2023/06/12 03:55:24;;;;;;;4.45;4.05;;;25.10;52.50;;;;;;4981664;28;88997;-83
2023/06/12 03:57:50;;;;;;;7.05;4.78;;;25.00;51.80;;;;;;4982346;28;89198;-85
2023/06/12 04:00:16;;;;;;;8.52;5.22;;;25.00;50.40;;;;;;4986718;28;87736;-85
2023/06/12 04:02:42;;;;;;;6.63;5.20;;;24.90;49.30;;;;;;4980117;28;87989;-85
2023/06/12 04:05:08;;;;;;;6.95;5.53;;;24.70;49.00;;;;;;4982011;28;87609;-82
2023/06/12 04:07:36;;;;;;;6.18;5.15;;;24.70;49.10;;;;;;4982503;28;88775;-83
2023/06/12 04:10:08;;;;;;;6.88;5.45;;;24.60;48.90;;;;;;4981524;28;87054;-86
2023/06/12 04:12:34;;;;;;;8.50;5.57;;;24.50;48.70;;;;;;4982446;28;87096;-87
2023/06/12 04:15:02;;;;;;;9.45;5.65;;;24.50;48.50;;;;;;4981452;28;88011;-82
2023/06/12 04:17:27;;;;;;;9.02;4.88;;;24.40;48.50;;;;;;4981469;28;87664;-86
2023/06/12 04:19:55;;;;;;;7.47;5.80;;;24.40;48.60;;;;;;4981504;28;88570;-85
2023/06/12 04:22:21;;;;;;;6.18;5.45;;;24.40;48.70;;;;;;4983897;28;87879;-83
2023/06/12 04:24:47;;;;;;;6.93;5.70;;;24.40;48.80;;;;;;4981526;28;88114;-83
2023/06/12 04:27:13;;;;;;;9.15;5.15;;;24.40;48.80;;;;;;4984924;28;87626;-83
2023/06/12 04:29:42;;;;;;;7.75;5.50;;;24.30;48.90;;;;;;4984032;28;87908;-84
2023/06/12 04:32:09;;;;;;;;;;;24.40;48.90;;;;;;4980550;28;87451;-84
2023/06/12 04:34:39;;;;;;;7.45;5.65;;;24.30;49.00;;;;;;4981900;28;89003;-83
2023/06/12 04:37:13;;;;;;;9.02;5.70;;;24.40;49.30;;;;;;4982477;28;87138;-86
2023/06/12 04:39:40;;;;;;;18.38;6.22;;;24.40;49.10;;;;;;4980863;28;87346;-83
2023/06/12 04:42:07;;;;;;;23.58;7.28;;;24.40;49.20;;;;;;4985194;28;87746;-84
2023/06/12 04:44:34;;;;;;;23.10;7.00;;;24.40;49.00;;;;;;4982350;28;89034;-85
2023/06/12 04:47:14;;;;;;;28.17;7.20;;;24.30;49.00;;;;;;4983057;28;88581;-84
2023/06/12 04:49:41;;;;;;;23.45;7.13;;;24.30;48.90;;;;;;4981880;28;88112;-85
2023/06/12 04:52:08;;;;;;;20.60;7.07;;;24.30;48.90;;;;;;4981429;28;87348;-83
2023/06/12 04:54:38;;;;;;;19.52;6.72;;;24.30;48.90;;;;;;4979815;28;88579;-84
2023/06/12 04:57:16;;;;;;;17.88;6.47;;;24.30;48.80;;;;;;4980329;28;88504;-84
2023/06/12 04:59:44;;;;;;;15.38;6.35;;;24.30;48.60;;;;;;4981196;28;87504;-86
2023/06/12 05:02:11;;;;;;;14.23;6.72;;;24.30;48.60;;;;;;4982579;28;87271;-87
2023/06/12 05:04:38;;;;;;;11.90;6.43;;;24.40;48.30;;;;;;4988728;28;87728;-84
2023/06/12 05:07:14;;;;;;;13.10;5.93;;;24.40;47.80;;;;;;4983798;28;91127;-90
2023/06/12 05:09:40;;;;;;;15.07;6.03;;;24.40;47.70;;;;;;4987986;28;89081;-86
2023/06/12 05:12:06;;;;;;;9.57;6.22;;;24.30;48.10;;;;;;4990484;28;87693;-84
2023/06/12 05:14:41;;;;;;;10.68;5.60;;;24.30;47.00;;;;;;4984093;28;89729;-89
2023/06/12 05:17:07;;;;;;;9.90;5.45;;;24.40;47.00;;;;;;4988986;28;87150;-88
2023/06/12 05:19:34;;;;;;;8.40;5.20;;;24.40;46.50;;;;;;4989381;28;87480;-86
2023/06/12 05:21:59;;;;;;;10.40;5.78;;;24.30;46.40;;;;;;4988681;28;87634;-86
2023/06/12 05:24:25;;;;;;;7.25;5.10;;;24.30;46.30;;;;;;4982387;28;88629;-86
2023/06/12 05:26:50;;;;;;;10.07;5.15;;;24.30;46.30;;;;;;4987276;28;87098;-85
2023/06/12 05:29:17;;;;;;;9.27;6.05;;;24.30;46.50;;;;;;4987701;28;87773;-86
2023/06/12 05:31:42;;;;;;;11.10;5.75;;;24.30;46.10;;;;;;4992799;28;87491;-84
2023/06/12 05:34:08;;;;;;;11.00;5.57;;;24.30;45.80;;;;;;4988946;28;87952;-88
2023/06/12 05:36:33;;;;;;;11.23;5.03;;;24.30;46.20;;;;;;4990809;28;87687;-83
2023/06/12 05:38:59;;;;;;;12.27;5.22;;;24.30;46.10;;;;;;4987595;28;87957;-85
2023/06/12 05:41:25;;;;;;;8.93;5.05;;;24.30;46.10;;;;;;4986769;28;87361;-90
2023/06/12 05:43:51;;;;;;;8.45;4.95;;;24.30;46.00;;;;;;4989522;28;87607;-84
2023/06/12 05:46:16;;;;;;;9.63;5.35;;;24.30;45.70;;;;;;4990091;28;87597;-88
2023/06/12 05:48:42;;;;;;;9.00;4.45;;;24.40;45.70;;;;;;4989750;28;87624;-85
2023/06/12 05:51:07;;;;;;;7.75;4.70;;;24.40;45.10;;;;;;4992045;28;86920;-85
2023/06/12 05:53:34;;;;;;;9.80;5.00;;;24.40;44.60;;;;;;4991273;28;87622;-86
2023/06/12 05:56:00;;;;;;;11.73;5.28;;;24.50;44.30;;;;;;4991426;28;87645;-87
2023/06/12 05:58:26;;;;;;;11.25;4.95;;;24.50;43.80;;;;;;4992238;28;88627;-87
2023/06/12 06:00:55;;;;;;;9.73;4.03;;;24.50;43.60;;;;;;4989498;28;87558;-84
2023/06/12 06:03:23;;;;;;;;;;;24.60;43.70;;;;;;4988826;28;87773;-84
2023/06/12 06:05:49;;;;;;;10.52;4.97;;;24.60;44.20;;;;;;4986763;28;89537;-84
2023/06/12 06:08:15;;;;;;;7.60;4.93;;;24.50;44.50;;;;;;4985560;28;87926;-87
2023/06/12 06:10:41;;;;;;;8.50;5.03;;;24.60;44.40;;;;;;4987334;28;87589;-83
2023/06/12 06:13:07;;;;;;;9.48;4.30;;;24.60;43.70;;;;;;4989350;28;87490;-89
2023/06/12 06:15:33;;;;;;;7.53;4.60;;;24.70;43.70;;;;;;4992995;28;87236;-83
2023/06/12 06:17:59;;;;;;;8.90;5.03;;;24.70;44.30;;;;;;4985856;28;87567;-84
2023/06/12 06:20:26;;;;;;;7.80;5.13;;;24.70;44.60;;;;;;4988563;28;87965;-84
2023/06/12 06:22:52;;;;;;;6.70;4.32;;;24.70;44.50;;;;;;4993216;28;88623;-88
2023/06/12 06:25:17;;;;;;;8.00;4.85;;;24.70;44.70;;;;;;4990940;28;87900;-87
2023/06/12 06:27:43;;;;;;;12.25;4.85;;;24.80;44.90;;;;;;4991476;28;87473;-85
2023/06/12 06:30:09;;;;;;;8.73;5.75;;;24.80;44.70;;;;;;4985269;28;88329;-84
2023/06/12 06:32:35;;;;;;;6.43;4.90;;;24.80;45.10;;;;;;4987978;28;89052;-84
2023/06/12 06:35:02;;;;;;;9.57;5.53;;;24.90;45.10;;;;;;4991761;28;88214;-85
2023/06/12 06:37:28;;;;;;;8.98;5.30;;;24.80;44.80;;;;;;4992193;28;88038;-86
2023/06/12 06:39:53;;;;;;;7.57;4.57;;;24.80;44.80;;;;;;4992684;28;87013;-84
2023/06/12 06:42:19;;;;;;;9.07;4.70;;;24.80;44.30;;;;;;4991835;28;87723;-85
2023/06/12 06:44:45;;;;;;;5.95;4.53;;;24.90;44.90;;;;;;4991366;28;87885;-86
2023/06/12 06:47:11;;;;;;;6.13;4.18;;;24.90;44.90;;;;;;4985628;28;90127;-84
2023/06/12 06:49:37;;;;;;;6.30;4.35;;;24.90;45.10;;;;;;4992403;28;87550;-87
2023/06/12 06:52:04;;;;;;;6.97;4.55;;;24.90;44.90;;;;;;4990722;28;87943;-88
2023/06/12 06:54:30;;;;;;;7.40;4.43;;;24.90;44.90;;;;;;4990497;28;89565;-85
2023/06/12 06:56:56;;;;;;;8.57;4.88;;;24.90;44.90;;;;;;4987962;28;87561;-88
2023/06/12 06:59:22;;;;;;;6.78;4.20;;;24.90;44.90;;;;;;4989584;28;87725;-85
2023/06/12 07:01:48;;;;;;;9.30;4.55;;;24.90;45.50;;;;;;4987757;28;88482;-86
2023/06/12 07:04:14;;;;;;;5.40;4.00;;;25.00;45.20;;;;;;4985167;28;87566;-87
2023/06/12 07:06:39;;;;;;;5.13;3.90;;;25.00;44.90;;;;;;4989534;28;87630;-87
2023/06/12 07:09:05;;;;;;;7.70;4.75;;;25.00;45.50;;;;;;4987732;28;87663;-86
2023/06/12 07:11:31;;;;;;;11.13;5.00;;;25.00;46.30;;;;;;4984222;28;91311;-86
2023/06/12 07:13:57;;;;;;;6.85;4.70;;;25.00;46.30;;;;;;4988726;28;88495;-85
2023/06/12 07:16:23;;;;;;;9.35;5.13;;;25.10;47.00;;;;;;4989868;28;87107;-86
2023/06/12 07:18:48;;;;;;;7.68;4.68;;;25.00;46.90;;;;;;4987310;28;89679;-87
2023/06/12 07:21:14;;;;;;;7.88;4.10;;;25.10;46.70;;;;;;4986734;28;90573;-86
2023/06/12 07:23:40;;;;;;;7.88;4.80;;;25.10;46.70;;;;;;4987268;28;87528;-87
2023/06/12 07:26:06;;;;;;;7.05;4.82;;;25.10;47.50;;;;;;4988561;28;87517;-87
2023/06/12 07:28:31;;;;;;;5.63;4.40;;;25.10;46.80;;;;;;4987547;28;87119;-89
2023/06/12 07:30:57;;;;;;;8.35;4.07;;;25.10;46.90;;;;;;4984529;28;89836;-88
2023/06/12 07:33:22;;;;;;;7.80;5.20;;;25.10;47.30;;;;;;4985841;28;91135;-88
2023/06/12 07:35:48;;;;;;;9.60;5.15;;;25.10;47.70;;;;;;4986990;28;89020;-87
2023/06/12 07:38:13;;;;;;;10.95;4.72;;;25.20;47.90;;;;;;4986279;28;87636;-89
2023/06/12 07:40:39;;;;;;;8.80;4.85;;;25.20;47.90;;;;;;4985485;28;87455;-87
2023/06/12 07:43:05;;;;;;;8.82;4.90;;;25.20;47.50;;;;;;4984623;28;88041;-87
2023/06/12 07:45:31;;;;;;;8.45;5.10;;;25.10;47.70;;;;;;4988766;28;87431;-84
2023/06/12 07:48:00;;;;;;;12.98;4.70;;;25.10;47.90;;;;;;4987332;28;87650;-84
2023/06/12 07:50:25;;;;;;;5.93;4.37;;;25.10;47.90;;;;;;4988854;28;87563;-86
2023/06/12 07:52:51;;;;;;;10.13;5.22;;;25.10;48.10;;;;;;4983763;28;87230;-88
2023/06/12 07:55:18;;;;;;;13.95;6.65;;;25.10;47.90;;;;;;4986751;28;87661;-85
2023/06/12 07:57:43;;;;;;;15.85;8.13;;;25.20;47.70;;;;;;4982879;28;88154;-85
2023/06/12 08:00:10;;;;;;;27.30;7.97;;;25.10;47.30;;;;;;4983346;28;91422;-86
2023/06/12 08:02:36;;;;;;;30.05;9.98;;;25.20;47.40;;;;;;4988742;28;88827;-86
2023/06/12 08:05:03;;;;;;;37.00;11.02;;;25.20;48.00;;;;;;4987982;28;88356;-86
2023/06/12 08:07:30;;;;;;;32.05;10.07;;;25.20;47.80;;;;;;4989008;28;87625;-92
2023/06/12 08:09:56;;;;;;;30.58;10.65;;;25.20;48.00;;;;;;4986030;28;87620;-85
2023/06/12 08:12:22;;;;;;;30.17;11.13;;;25.20;48.00;;;;;;4985302;28;88487;-87
2023/06/12 08:14:48;;;;;;;29.80;8.80;;;25.20;48.10;;;;;;4982994;28;88193;-88
2023/06/12 08:17:15;;;;;;;30.52;10.10;;;25.20;48.20;;;;;;4987248;28;87846;-88
2023/06/12 08:19:41;;;;;;;31.42;9.80;;;25.20;48.30;;;;;;4987691;28;88151;-90
2023/06/12 08:22:07;;;;;;;31.75;10.68;;;25.20;48.30;;;;;;4989254;28;88887;-86
2023/06/12 08:24:35;;;;;;;30.27;10.30;;;25.20;48.70;;;;;;4986675;28;88786;-87
2023/06/12 08:27:02;;;;;;;30.25;9.75;;;25.20;48.90;;;;;;4987177;28;87158;-88
2023/06/12 08:29:28;;;;;;;25.35;9.10;;;25.20;49.50;;;;;;4984471;28;90354;-90
2023/06/12 08:31:56;;;;;;;31.00;10.15;;;25.20;49.00;;;;;;4988312;28;87996;-89
2023/06/12 08:34:26;;;;;;;20.58;8.50;;;25.20;48.90;;;;;;4988696;28;87329;-88
2023/06/12 08:36:53;;;;;;;25.30;9.85;;;25.10;48.80;;;;;;4986890;28;87331;-89
2023/06/12 08:39:19;;;;;;;28.40;9.65;;;25.10;49.00;;;;;;4990514;28;87918;-88
2023/06/12 08:42:07;;;;;;;24.63;9.55;;;25.20;49.00;;;;;;4989713;28;88331;-86
2023/06/12 08:44:34;;;;;;;24.05;9.70;;;25.20;49.10;;;;;;4989616;28;87799;-87
2023/06/12 08:47:02;;;;;;;23.95;9.80;;;25.20;49.30;;;;;;4985680;28;87417;-88
2023/06/12 08:49:28;;;;;;;24.98;9.15;;;25.20;49.20;;;;;;4988384;28;89546;-89
2023/06/12 08:51:53;;;;;;;21.40;9.00;;;25.20;48.90;;;;;;4987297;28;88153;-86
2023/06/12 08:54:20;;;;;;;21.00;8.18;;;25.20;49.10;;;;;;4988329;28;87513;-89
2023/06/12 08:56:46;;;;;;;20.73;8.75;;;25.20;49.20;;;;;;4986452;28;89898;-85
2023/06/12 08:59:12;;;;;;;24.85;8.77;;;25.30;49.30;;;;;;4983583;28;91636;-90
2023/06/12 09:01:39;;;;;;;21.02;7.80;;;25.20;49.30;;;;;;4983202;28;88067;-89
2023/06/12 09:04:28;;;;;;;19.63;7.82;;;25.30;49.40;;;;;;4986354;28;88232;-90
2023/06/12 09:07:03;;;;;;;24.55;9.65;;;25.30;49.40;;;;;;4983213;28;87615;-87
2023/06/12 09:09:39;;;;;;;24.77;9.23;;;25.30;49.20;;;;;;4982247;28;87807;-87
2023/06/12 09:12:08;;;;;;;19.88;8.43;;;25.30;49.50;;;;;;4979976;28;87887;-87
2023/06/12 09:14:35;;;;;;;20.02;8.63;;;25.30;49.30;;;;;;4983583;28;88873;-86
2023/06/12 09:17:02;;;;;;;17.92;8.27;;;25.30;49.70;;;;;;4981270;28;87539;-86
2023/06/12 09:19:42;;;;;;;27.77;9.35;;;25.30;49.80;;;;;;4982677;28;88949;-85
2023/06/12 09:22:07;;;;;;;21.92;8.00;;;25.40;49.90;;;;;;4982168;28;87370;-85
2023/06/12 09:24:33;;;;;;;18.17;7.70;;;25.40;50.20;;;;;;4984134;28;88506;-86
2023/06/12 09:27:00;;;;;;;21.15;8.13;;;25.40;49.90;;;;;;4981394;28;89291;-86
2023/06/12 09:29:30;;;;;;;18.55;8.20;;;25.50;50.30;;;;;;4983857;28;88394;-86
2023/06/12 09:32:00;;;;;;;21.33;7.95;;;25.60;50.10;;;;;;4985961;28;87879;-83
2023/06/12 09:34:26;;;;;;;17.65;7.97;;;25.70;50.20;;;;;;4982344;28;88156;-84
2023/06/12 09:36:53;;;;;;;18.35;7.22;;;25.70;50.00;;;;;;4983351;28;87467;-83
2023/06/12 09:39:28;;;;;;;22.02;8.07;;;25.80;50.30;;;;;;4984509;28;88530;-85
2023/06/12 09:41:55;;;;;;;15.75;7.55;;;25.80;50.30;;;;;;4979048;28;88629;-88
2023/06/12 09:44:28;;;;;;;23.42;8.50;;;25.70;50.20;;;;;;4980518;28;87698;-86
2023/06/12 09:47:04;;;;;;;17.95;7.80;;;25.60;50.30;;;;;;4981969;28;88218;-88
2023/06/12 09:49:31;;;;;;;19.35;7.10;;;25.60;50.20;;;;;;4980785;28;92011;-89
2023/06/12 09:52:04;;;;;;;17.05;7.88;;;25.50;50.50;;;;;;4982082;28;88711;-87
2023/06/12 09:54:31;;;;;;;16.63;7.20;;;25.50;50.60;;;;;;4981161;28;87199;-86
2023/06/12 09:57:00;;;;;;;15.43;7.97;;;25.50;50.80;;;;;;4985300;28;90029;-85
2023/06/12 09:59:32;;;;;;;16.20;8.03;;;25.50;51.10;;;;;;4980830;28;88751;-85
2023/06/12 10:02:14;;;;;;;16.70;7.43;;;25.40;51.20;;;;;;4980311;28;90147;-87
2023/06/12 10:05:01;;;;;;;16.48;7.47;;;25.40;51.30;;;;;;4981481;28;88530;-89
2023/06/12 10:07:37;;;;;;;14.73;7.28;;;25.40;51.30;;;;;;4981200;28;87332;-87
2023/06/12 10:10:07;;;;;;;15.73;7.10;;;25.40;51.50;;;;;;4981915;28;87775;-86
2023/06/12 10:12:33;;;;;;;12.85;7.22;;;25.50;51.80;;;;;;4982311;28;91002;-85
2023/06/12 10:15:03;;;;;;;14.98;7.32;;;25.50;51.50;;;;;;4986641;28;87757;-88
2023/06/12 10:17:30;;;;;;;19.00;8.27;;;25.50;51.30;;;;;;4977231;28;87953;-87
2023/06/12 10:19:57;;;;;;;18.88;7.75;;;25.50;51.60;;;;;;4984203;28;88385;-87
2023/06/12 10:22:23;;;;;;;15.85;7.45;;;25.50;51.40;;;;;;4985682;28;87678;-88
2023/06/12 10:24:49;;;;;;;19.98;7.32;;;25.50;51.70;;;;;;4983300;28;88213;-87
2023/06/12 10:27:18;;;;;;;12.85;6.53;;;25.60;51.60;;;;;;4984360;28;87672;-84
2023/06/12 10:29:43;;;;;;;19.00;7.20;;;25.50;51.80;;;;;;4982128;28;89151;-88
2023/06/12 10:32:10;;;;;;;12.25;6.60;;;25.50;51.60;;;;;;4989696;28;88380;-85
2023/06/12 10:34:41;;;;;;;17.83;7.78;;;25.60;51.90;;;;;;4988741;28;87531;-88
2023/06/12 10:37:28;;;;;;;18.10;7.60;;;25.60;51.90;;;;;;4988819;28;87739;-87
2023/06/12 10:40:13;;;;;;;17.13;7.55;;;25.60;51.90;;;;;;4990086;28;88672;-86
2023/06/12 10:42:44;;;;;;;20.00;8.23;;;25.60;51.90;;;;;;4992731;28;87783;-88
2023/06/12 10:45:13;;;;;;;29.90;8.60;;;25.50;51.90;;;;;;4990095;28;87751;-89
2023/06/12 10:47:38;;;;;;;26.47;11.33;;;25.50;52.00;;;;;;4990350;28;87166;-84
2023/06/12 10:50:05;;;;;;;37.40;13.20;;;25.50;52.00;;;;;;4989373;28;87808;-89
2023/06/12 10:52:31;;;;;;;50.17;17.63;;;25.50;52.00;;;;;;4990615;28;88482;-88
2023/06/12 10:55:15;;;;;;;51.03;18.42;;;25.50;52.00;;;;;;4992953;28;88403;-88
2023/06/12 10:57:55;;;;;;;51.80;16.90;;;25.60;51.90;;;;;;4988999;28;88780;-85
2023/06/12 11:00:32;;;;;;;49.00;17.17;;;25.60;51.90;;;;;;4986449;28;88195;-87
2023/06/12 11:03:06;;;;;;;53.42;18.58;;;25.60;51.90;;;;;;4988101;28;87507;-89
2023/06/12 11:05:33;;;;;;;54.40;19.65;;;25.60;51.90;;;;;;4989180;28;87378;-87
2023/06/12 11:08:09;;;;;;;43.75;17.45;;;25.60;51.90;;;;;;5004709;28;88616;-88
2023/06/12 11:10:35;;;;;;;48.63;17.55;;;25.60;51.80;;;;;;4989129;28;89569;-88
2023/06/12 11:13:05;;;;;;;46.85;19.23;;;25.60;51.80;;;;;;4992564;28;87852;-84
2023/06/12 11:15:42;;;;;;;47.67;16.80;;;25.60;51.70;;;;;;4991583;28;87623;-89
2023/06/12 11:18:09;;;;;;;52.75;19.02;;;25.60;51.80;;;;;;4989141;28;87600;-84
2023/06/12 11:20:34;;;;;;;47.45;17.77;;;25.60;51.90;;;;;;4986757;28;88534;-91
2023/06/12 11:23:01;;;;;;;52.17;19.50;;;25.60;51.80;;;;;;4988856;28;89056;-88
2023/06/12 11:25:31;;;;;;;44.40;17.35;;;25.60;51.70;;;;;;4989684;28;87930;-88
2023/06/12 11:27:56;;;;;;;45.25;16.67;;;25.60;52.10;;;;;;4988661;28;87756;-89
2023/06/12 11:30:24;;;;;;;44.97;17.10;;;25.60;51.70;;;;;;4990750;28;87775;-90
2023/06/12 11:32:50;;;;;;;48.03;17.35;;;25.60;51.60;;;;;;4990042;28;87619;-88
2023/06/12 11:35:16;;;;;;;44.25;16.35;;;25.60;51.60;;;;;;4988583;28;88316;-88
2023/06/12 11:37:42;;;;;;;48.70;17.98;;;25.60;51.70;;;;;;4985975;28;87844;-89
2023/06/12 11:40:11;;;;;;;47.47;16.92;;;25.60;51.60;;;;;;4992961;28;87804;-85
2023/06/12 11:42:41;;;;;;;41.17;15.80;;;25.60;51.60;;;;;;4988050;28;87531;-88
2023/06/12 11:45:08;;;;;;;49.13;17.92;;;25.60;51.70;;;;;;4985612;28;88567;-90
2023/06/12 11:47:39;;;;;;;43.95;17.15;;;25.60;51.60;;;;;;4987660;28;87310;-88
2023/06/12 11:50:06;;;;;;;44.20;16.50;;;25.60;51.30;;;;;;4990753;28;88195;-87
2023/06/12 11:52:33;;;;;;;47.28;17.58;;;25.70;51.50;;;;;;4991907;28;87999;-85
2023/06/12 11:55:04;;;;;;;45.15;16.98;;;25.70;52.20;;;;;;4992300;28;88019;-87
2023/06/12 11:57:30;;;;;;;42.78;15.68;;;25.70;51.70;;;;;;4989885;28;88334;-90
2023/06/12 11:59:58;;;;;;;45.67;15.70;;;25.70;51.60;;;;;;4992353;28;87885;-89
2023/06/12 12:02:39;;;;;;;34.77;15.27;;;25.70;51.70;;;;;;4990446;28;87292;-87
2023/06/12 12:05:07;;;;;;;37.33;13.32;;;25.60;51.90;;;;;;4986435;28;88106;-88
2023/06/12 12:07:32;;;;;;;34.58;14.55;;;25.60;51.80;;;;;;4986757;28;87493;-89
2023/06/12 12:10:08;;;;;;;34.42;13.48;;;25.60;51.30;;;;;;4986295;28;89648;-90
2023/06/12 12:12:44;;;;;;;29.13;12.77;;;25.70;51.30;;;;;;4987425;28;87714;-88
2023/06/12 12:15:12;;;;;;;30.38;11.93;;;25.70;50.70;;;;;;4986287;28;87349;-90
2023/06/12 12:17:38;;;;;;;31.73;13.40;;;25.70;50.10;;;;;;4985172;28;87308;-84
2023/06/12 12:20:08;;;;;;;25.48;12.23;;;25.70;49.90;;;;;;4984959;28;88051;-85
2023/06/12 12:22:38;;;;;;;30.92;12.75;;;25.70;49.60;;;;;;4984301;28;90237;-90
2023/06/12 12:25:05;;;;;;;28.85;12.60;;;25.70;49.50;;;;;;4985201;28;88123;-85
2023/06/12 12:27:30;;;;;;;26.67;12.48;;;25.70;49.40;;;;;;4987479;28;86872;-88
2023/06/12 12:29:56;;;;;;;28.25;12.30;;;25.70;49.70;;;;;;4989656;28;88178;-90
2023/06/12 12:32:22;;;;;;;28.38;11.05;;;25.70;49.50;;;;;;4987231;28;88228;-87
2023/06/12 12:34:47;;;;;;;22.50;10.95;;;25.70;49.60;;;;;;4984704;28;88392;-88
2023/06/12 12:37:13;;;;;;;25.60;10.38;;;25.70;49.00;;;;;;4985889;28;88130;-89
2023/06/12 12:39:38;;;;;;;25.70;10.95;;;25.70;48.70;;;;;;4989549;28;88641;-86
2023/06/12 12:42:04;;;;;;;21.58;11.50;;;25.70;48.50;;;;;;4987125;28;87727;-89
2023/06/12 12:44:30;;;;;;;22.88;9.55;;;25.70;48.50;;;;;;4987486;28;87747;-87